sensor_id;sensor_type;location;lat;lon;timestamp;pressure;altitude;pressure_sealevel;temperature;humidity
8039;BME280;4062;49.844;8.120;2024-03-07T00:01:15;99985.84;;;13.63;57.36
8039;BME280;4062;49.844;8.120;2024-03-07T00:03:16;99989.41;;;13.63;57.22
8039;BME280;4062;49.844;8.120;2024-03-07T00:05:20;99990.25;;;13.64;57.35
8039;BME280;4062;49.844;8.120;2024-03-07T00:07:22;99981.47;;;13.62;57.26
8039;BME280;4062;49.844;8.120;2024-03-07T00:09:23;99990.25;;;13.64;57.30
8039;BME280;4062;49.844;8.120;2024-03-07T00:11:27;99991.16;;;13.63;57.36
8039;BME280;4062;49.844;8.120;2024-03-07T00:13:29;99985.84;;;13.63;57.37
8039;BME280;4062;49.844;8.120;2024-03-07T00:15:31;99988.50;;;13.63;57.23
8039;BME280;4062;49.844;8.120;2024-03-07T00:17:33;99990.31;;;13.62;57.31
8039;BME280;4062;49.844;8.120;2024-03-07T00:19:35;99990.25;;;13.64;57.30
8039;BME280;4062;49.844;8.120;2024-03-07T00:21:36;99991.16;;;13.63;57.30
8039;BME280;4062;49.844;8.120;2024-03-07T00:23:38;99999.13;;;13.63;57.29
8039;BME280;4062;49.844;8.120;2024-03-07T00:25:39;100000.94;;;13.62;57.39
8039;BME280;4062;49.844;8.120;2024-03-07T00:27:41;99992.97;;;13.62;57.29
8039;BME280;4062;49.844;8.120;2024-03-07T00:29:42;100001.78;;;13.63;57.42
8039;BME280;4062;49.844;8.120;2024-03-07T00:31:44;100003.59;;;13.62;57.33
8039;BME280;4062;49.844;8.120;2024-03-07T00:33:45;99992.06;;;13.62;57.38
8039;BME280;4062;49.844;8.120;2024-03-07T00:35:46;99986.78;;;13.62;57.25
8039;BME280;4062;49.844;8.120;2024-03-07T00:37:49;99992.97;;;13.62;57.49
8039;BME280;4062;49.844;8.120;2024-03-07T00:39:50;99992.06;;;13.62;57.43
8039;BME280;4062;49.844;8.120;2024-03-07T00:41:52;99992.06;;;13.62;57.28
8039;BME280;4062;49.844;8.120;2024-03-07T00:43:53;99987.69;;;13.60;57.33
8039;BME280;4062;49.844;8.120;2024-03-07T00:45:54;99986.78;;;13.62;57.31
8039;BME280;4062;49.844;8.120;2024-03-07T00:47:55;99988.50;;;13.63;57.39
8039;BME280;4062;49.844;8.120;2024-03-07T00:49:57;99993.88;;;13.61;57.40
8039;BME280;4062;49.844;8.120;2024-03-07T00:51:59;99996.53;;;13.61;57.29
8039;BME280;4062;49.844;8.120;2024-03-07T00:54:01;99985.91;;;13.61;57.30
8039;BME280;4062;49.844;8.120;2024-03-07T00:56:02;99985.91;;;13.61;57.29
8039;BME280;4062;49.844;8.120;2024-03-07T00:58:04;99992.06;;;13.62;57.38
8039;BME280;4062;49.844;8.120;2024-03-07T01:00:06;99988.56;;;13.61;57.34
8039;BME280;4062;49.844;8.120;2024-03-07T01:02:12;99991.22;;;13.61;57.24
8039;BME280;4062;49.844;8.120;2024-03-07T01:04:14;99998.28;;;13.60;57.43
8039;BME280;4062;49.844;8.120;2024-03-07T01:06:16;99988.56;;;13.61;57.42
8039;BME280;4062;49.844;8.120;2024-03-07T01:08:17;99989.41;;;13.62;57.38
8039;BME280;4062;49.844;8.120;2024-03-07T01:10:19;99990.34;;;13.60;57.41
8039;BME280;4062;49.844;8.120;2024-03-07T01:12:20;99984.16;;;13.60;57.31
8039;BME280;4062;49.844;8.120;2024-03-07T01:14:25;99988.56;;;13.61;57.36
8039;BME280;4062;49.844;8.120;2024-03-07T01:16:26;99990.34;;;13.60;57.50
8039;BME280;4062;49.844;8.120;2024-03-07T01:18:28;99984.16;;;13.60;57.44
8039;BME280;4062;49.844;8.120;2024-03-07T01:20:30;99979.72;;;13.60;57.27
8039;BME280;4062;49.844;8.120;2024-03-07T01:22:31;99979.72;;;13.60;57.33
8039;BME280;4062;49.844;8.120;2024-03-07T01:24:32;99988.56;;;13.61;57.37
8039;BME280;4062;49.844;8.120;2024-03-07T01:26:34;99979.72;;;13.60;57.28
8039;BME280;4062;49.844;8.120;2024-03-07T01:28:36;99981.50;;;13.60;57.26
8039;BME280;4062;49.844;8.120;2024-03-07T01:30:37;99978.84;;;13.60;57.32
8039;BME280;4062;49.844;8.120;2024-03-07T01:32:38;99973.53;;;13.60;57.25
8039;BME280;4062;49.844;8.120;2024-03-07T01:34:40;99974.41;;;13.60;57.31
8039;BME280;4062;49.844;8.120;2024-03-07T01:36:41;99970.00;;;13.59;57.33
8039;BME280;4062;49.844;8.120;2024-03-07T01:38:42;99973.53;;;13.60;57.40
8039;BME280;4062;49.844;8.120;2024-03-07T01:40:44;99970.88;;;13.60;57.45
8039;BME280;4062;49.844;8.120;2024-03-07T01:42:50;99965.56;;;13.60;57.32
8039;BME280;4062;49.844;8.120;2024-03-07T01:44:51;99968.22;;;13.60;57.38
8039;BME280;4062;49.844;8.120;2024-03-07T01:46:53;99968.22;;;13.60;57.32
8039;BME280;4062;49.844;8.120;2024-03-07T01:48:54;99966.44;;;13.60;57.36
8039;BME280;4062;49.844;8.120;2024-03-07T01:50:56;99965.63;;;13.58;57.22
8039;BME280;4062;49.844;8.120;2024-03-07T01:52:59;99967.34;;;13.59;57.49
8039;BME280;4062;49.844;8.120;2024-03-07T01:55:01;99968.22;;;13.60;57.40
8039;BME280;4062;49.844;8.120;2024-03-07T01:57:05;99964.69;;;13.59;57.37
8039;BME280;4062;49.844;8.120;2024-03-07T01:59:07;99957.66;;;13.58;57.49
8039;BME280;4062;49.844;8.120;2024-03-07T02:01:09;99961.19;;;13.59;57.40
8039;BME280;4062;49.844;8.120;2024-03-07T02:03:11;99959.38;;;13.59;57.29
8039;BME280;4062;49.844;8.120;2024-03-07T02:05:14;99955.88;;;13.59;57.44
8039;BME280;4062;49.844;8.120;2024-03-07T02:07:16;99953.22;;;13.59;57.38
8039;BME280;4062;49.844;8.120;2024-03-07T02:09:17;99950.56;;;13.59;57.46
8039;BME280;4062;49.844;8.120;2024-03-07T02:11:18;99957.66;;;13.58;57.40
8039;BME280;4062;49.844;8.120;2024-03-07T02:13:19;99951.41;;;13.59;57.47
8039;BME280;4062;49.844;8.120;2024-03-07T02:15:21;99952.34;;;13.58;57.47
8039;BME280;4062;49.844;8.120;2024-03-07T02:17:22;99952.34;;;13.58;57.46
8039;BME280;4062;49.844;8.120;2024-03-07T02:19:24;99944.38;;;13.58;57.48
8039;BME280;4062;49.844;8.120;2024-03-07T02:21:26;99949.69;;;13.58;57.41
8039;BME280;4062;49.844;8.120;2024-03-07T02:23:27;99949.69;;;13.58;57.47
8039;BME280;4062;49.844;8.120;2024-03-07T02:25:29;99946.16;;;13.58;57.33
8039;BME280;4062;49.844;8.120;2024-03-07T02:27:31;99943.50;;;13.58;57.36
8039;BME280;4062;49.844;8.120;2024-03-07T02:29:32;99942.59;;;13.59;57.40
8039;BME280;4062;49.844;8.120;2024-03-07T02:31:33;99938.19;;;13.58;57.46
8039;BME280;4062;49.844;8.120;2024-03-07T02:33:38;99937.28;;;13.59;57.41
8039;BME280;4062;49.844;8.120;2024-03-07T02:35:39;99938.19;;;13.58;57.48
8039;BME280;4062;49.844;8.120;2024-03-07T02:37:40;99931.13;;;13.57;57.48
8039;BME280;4062;49.844;8.120;2024-03-07T02:39:42;99938.19;;;13.58;57.43
8039;BME280;4062;49.844;8.120;2024-03-07T02:41:43;99932.88;;;13.58;57.27
8039;BME280;4062;49.844;8.120;2024-03-07T02:43:44;99934.69;;;13.57;57.36
8039;BME280;4062;49.844;8.120;2024-03-07T02:45:45;99933.78;;;13.58;57.47
8039;BME280;4062;49.844;8.120;2024-03-07T02:47:47;99930.22;;;13.58;57.60
8039;BME280;4062;49.844;8.120;2024-03-07T02:49:49;99936.44;;;13.57;57.32
8039;BME280;4062;49.844;8.120;2024-03-07T02:51:50;99927.56;;;13.58;57.45
8039;BME280;4062;49.844;8.120;2024-03-07T02:53:52;99932.03;;;13.57;57.46
8039;BME280;4062;49.844;8.120;2024-03-07T02:55:53;99927.56;;;13.58;57.48
8039;BME280;4062;49.844;8.120;2024-03-07T02:57:55;99923.19;;;13.57;57.51
8039;BME280;4062;49.844;8.120;2024-03-07T02:59:59;99929.38;;;13.57;57.35
8039;BME280;4062;49.844;8.120;2024-03-07T03:02:01;99923.19;;;13.57;57.39
8039;BME280;4062;49.844;8.120;2024-03-07T03:04:02;99927.56;;;13.58;57.45
8039;BME280;4062;49.844;8.120;2024-03-07T03:06:04;99930.22;;;13.58;57.41
8039;BME280;4062;49.844;8.120;2024-03-07T03:08:06;99926.72;;;13.57;57.57
8039;BME280;4062;49.844;8.120;2024-03-07T03:10:08;99929.38;;;13.57;57.43
8039;BME280;4062;49.844;8.120;2024-03-07T03:12:10;99931.13;;;13.57;57.37
8039;BME280;4062;49.844;8.120;2024-03-07T03:14:12;99931.13;;;13.57;57.48
8039;BME280;4062;49.844;8.120;2024-03-07T03:16:17;99924.09;;;13.56;57.54
8039;BME280;4062;49.844;8.120;2024-03-07T03:18:18;99924.97;;;13.56;57.36
8039;BME280;4062;49.844;8.120;2024-03-07T03:20:20;99928.47;;;13.57;57.49
8039;BME280;4062;49.844;8.120;2024-03-07T03:22:41;99917.88;;;13.57;57.53
8039;BME280;4062;49.844;8.120;2024-03-07T03:24:45;99917.88;;;13.57;57.48
8039;BME280;4062;49.844;8.120;2024-03-07T03:26:47;99917.88;;;13.57;57.48
8039;BME280;4062;49.844;8.120;2024-03-07T03:28:48;99914.34;;;13.56;57.49
8039;BME280;4062;49.844;8.120;2024-03-07T03:30:50;99914.34;;;13.56;57.51
8039;BME280;4062;49.844;8.120;2024-03-07T03:32:52;99915.22;;;13.57;57.29
8039;BME280;4062;49.844;8.120;2024-03-07T03:34:53;99917.88;;;13.57;57.35
8039;BME280;4062;49.844;8.120;2024-03-07T03:36:55;99918.75;;;13.57;57.36
8039;BME280;4062;49.844;8.120;2024-03-07T03:38:56;99922.25;;;13.58;57.35
8039;BME280;4062;49.844;8.120;2024-03-07T03:40:57;99910.72;;;13.59;57.37
8039;BME280;4062;49.844;8.120;2024-03-07T03:42:59;99913.38;;;13.59;57.38
8039;BME280;4062;49.844;8.120;2024-03-07T03:45:00;99911.66;;;13.58;57.35
8039;BME280;4062;49.844;8.120;2024-03-07T03:47:02;99920.50;;;13.58;57.25
8039;BME280;4062;49.844;8.120;2024-03-07T03:49:04;99911.59;;;13.59;57.35
8039;BME280;4062;49.844;8.120;2024-03-07T03:51:07;99914.25;;;13.59;57.32
8039;BME280;4062;49.844;8.120;2024-03-07T03:53:09;99913.38;;;13.59;57.24
8039;BME280;4062;49.844;8.120;2024-03-07T03:55:11;99912.47;;;13.60;57.27
8039;BME280;4062;49.844;8.120;2024-03-07T03:57:13;99909.81;;;13.60;57.39
8039;BME280;4062;49.844;8.120;2024-03-07T03:59:15;99908.06;;;13.59;57.34
8039;BME280;4062;49.844;8.120;2024-03-07T04:01:16;99912.47;;;13.60;57.20
8039;BME280;4062;49.844;8.120;2024-03-07T04:03:17;99910.69;;;13.60;57.21
8039;BME280;4062;49.844;8.120;2024-03-07T04:05:20;99915.13;;;13.60;57.24
8039;BME280;4062;49.844;8.120;2024-03-07T04:07:22;99916.00;;;13.60;57.26
8039;BME280;4062;49.844;8.120;2024-03-07T04:09:23;99914.22;;;13.61;57.40
8039;BME280;4062;49.844;8.120;2024-03-07T04:11:25;99912.47;;;13.60;57.40
8039;BME280;4062;49.844;8.120;2024-03-07T04:13:26;99910.69;;;13.60;57.25
8039;BME280;4062;49.844;8.120;2024-03-07T04:15:28;99910.69;;;13.60;57.38
8039;BME280;4062;49.844;8.120;2024-03-07T04:17:32;99908.91;;;13.61;57.25
8039;BME280;4062;49.844;8.120;2024-03-07T04:19:39;99912.44;;;13.62;57.35
8039;BME280;4062;49.844;8.120;2024-03-07T04:21:40;99908.91;;;13.61;57.20
8039;BME280;4062;49.844;8.120;2024-03-07T04:23:43;99912.44;;;13.62;57.35
8039;BME280;4062;49.844;8.120;2024-03-07T04:25:46;99911.56;;;13.61;57.30
8039;BME280;4062;49.844;8.120;2024-03-07T04:27:48;99908.00;;;13.62;57.26
8039;BME280;4062;49.844;8.120;2024-03-07T04:29:53;99912.44;;;13.62;57.30
8039;BME280;4062;49.844;8.120;2024-03-07T04:31:54;99910.66;;;13.62;57.23
8039;BME280;4062;49.844;8.120;2024-03-07T04:33:55;99912.44;;;13.62;57.23
8039;BME280;4062;49.844;8.120;2024-03-07T04:35:57;99908.91;;;13.61;57.31
8039;BME280;4062;49.844;8.120;2024-03-07T04:37:59;99915.97;;;13.62;57.25
8039;BME280;4062;49.844;8.120;2024-03-07T04:40:00;99907.13;;;13.62;57.30
8039;BME280;4062;49.844;8.120;2024-03-07T04:42:02;99905.34;;;13.62;57.23
8039;BME280;4062;49.844;8.120;2024-03-07T04:44:04;99911.50;;;13.63;57.36
8039;BME280;4062;49.844;8.120;2024-03-07T04:46:05;99902.69;;;13.62;57.37
8039;BME280;4062;49.844;8.120;2024-03-07T04:48:07;99903.59;;;13.61;57.34
8039;BME280;4062;49.844;8.120;2024-03-07T04:50:09;99902.69;;;13.62;57.21
8039;BME280;4062;49.844;8.120;2024-03-07T04:52:11;99906.22;;;13.63;57.37
8039;BME280;4062;49.844;8.120;2024-03-07T04:54:13;99901.81;;;13.62;57.26
8039;BME280;4062;49.844;8.120;2024-03-07T04:56:14;99905.34;;;13.62;57.37
8039;BME280;4062;49.844;8.120;2024-03-07T04:58:16;99902.69;;;13.62;57.29
8039;BME280;4062;49.844;8.120;2024-03-07T05:00:17;99906.22;;;13.63;57.21
8039;BME280;4062;49.844;8.120;2024-03-07T05:02:20;99907.13;;;13.62;57.23
8039;BME280;4062;49.844;8.120;2024-03-07T05:04:22;99907.13;;;13.62;57.23
8039;BME280;4062;49.844;8.120;2024-03-07T05:06:24;99900.06;;;13.60;57.23
8039;BME280;4062;49.844;8.120;2024-03-07T05:08:26;99903.53;;;13.63;57.36
8039;BME280;4062;49.844;8.120;2024-03-07T05:10:27;99899.16;;;13.62;57.38
8039;BME280;4062;49.844;8.120;2024-03-07T05:12:31;99890.31;;;13.61;57.33
8039;BME280;4062;49.844;8.120;2024-03-07T05:14:32;99888.53;;;13.62;57.21
8039;BME280;4062;49.844;8.120;2024-03-07T05:16:34;99891.19;;;13.62;57.32
8039;BME280;4062;49.844;8.120;2024-03-07T05:18:35;99890.31;;;13.61;57.30
8039;BME280;4062;49.844;8.120;2024-03-07T05:20:36;99892.06;;;13.62;57.29
8039;BME280;4062;49.844;8.120;2024-03-07T05:22:40;99892.06;;;13.62;57.24
8039;BME280;4062;49.844;8.120;2024-03-07T05:24:45;99892.09;;;13.60;57.44
8039;BME280;4062;49.844;8.120;2024-03-07T05:26:46;99891.19;;;13.62;57.30
8039;BME280;4062;49.844;8.120;2024-03-07T05:28:48;99890.31;;;13.61;57.42
8039;BME280;4062;49.844;8.120;2024-03-07T05:30:49;99892.09;;;13.60;57.24
8039;BME280;4062;49.844;8.120;2024-03-07T05:32:50;99892.97;;;13.61;57.31
8039;BME280;4062;49.844;8.120;2024-03-07T05:34:52;99901.81;;;13.62;57.33
8039;BME280;4062;49.844;8.120;2024-03-07T05:36:56;99892.09;;;13.60;57.36
8039;BME280;4062;49.844;8.120;2024-03-07T05:38:58;99899.16;;;13.62;57.25
8039;BME280;4062;49.844;8.120;2024-03-07T05:40:59;99892.97;;;13.61;57.36
8039;BME280;4062;49.844;8.120;2024-03-07T05:43:02;99892.97;;;13.61;57.19
8039;BME280;4062;49.844;8.120;2024-03-07T05:45:03;99893.84;;;13.62;57.35
8039;BME280;4062;49.844;8.120;2024-03-07T05:47:09;99900.94;;;13.61;57.36
8039;BME280;4062;49.844;8.120;2024-03-07T05:49:10;99892.97;;;13.61;57.40
8039;BME280;4062;49.844;8.120;2024-03-07T05:51:11;99903.59;;;13.61;57.26
8039;BME280;4062;49.844;8.120;2024-03-07T05:53:12;99903.59;;;13.61;57.37
8039;BME280;4062;49.844;8.120;2024-03-07T05:55:14;99906.25;;;13.61;57.36
8039;BME280;4062;49.844;8.120;2024-03-07T05:57:17;99904.47;;;13.62;57.32
8039;BME280;4062;49.844;8.120;2024-03-07T05:59:18;99890.31;;;13.61;57.24
8039;BME280;4062;49.844;8.120;2024-03-07T06:01:19;99893.84;;;13.62;57.39
8039;BME280;4062;49.844;8.120;2024-03-07T06:03:21;99898.28;;;13.61;57.34
8039;BME280;4062;49.844;8.120;2024-03-07T06:05:22;99887.66;;;13.61;57.32
8039;BME280;4062;49.844;8.120;2024-03-07T06:07:24;99893.84;;;13.62;57.29
8039;BME280;4062;49.844;8.120;2024-03-07T06:09:26;99893.81;;;13.63;57.43
8039;BME280;4062;49.844;8.120;2024-03-07T06:11:29;99892.06;;;13.62;57.23
8039;BME280;4062;49.844;8.120;2024-03-07T06:13:33;99901.81;;;13.62;57.33
8039;BME280;4062;49.844;8.120;2024-03-07T06:15:36;99894.72;;;13.62;57.18
8039;BME280;4062;49.844;8.120;2024-03-07T06:17:38;99892.94;;;13.63;57.23
8039;BME280;4062;49.844;8.120;2024-03-07T06:19:39;99897.38;;;13.62;57.21
8039;BME280;4062;49.844;8.120;2024-03-07T06:21:41;99900.03;;;13.62;57.31
8039;BME280;4062;49.844;8.120;2024-03-07T06:23:42;99893.81;;;13.63;57.26
8039;BME280;4062;49.844;8.120;2024-03-07T06:25:44;99896.47;;;13.63;57.31
8039;BME280;4062;49.844;8.120;2024-03-07T06:27:57;99900.88;;;13.63;57.18
8039;BME280;4062;49.844;8.120;2024-03-07T06:30:00;99902.63;;;13.64;57.23
8039;BME280;4062;49.844;8.120;2024-03-07T06:32:01;99902.63;;;13.64;57.16
8039;BME280;4062;49.844;8.120;2024-03-07T06:34:02;99892.94;;;13.63;57.29
8039;BME280;4062;49.844;8.120;2024-03-07T06:36:05;99887.63;;;13.63;57.35
8039;BME280;4062;49.844;8.120;2024-03-07T06:38:07;99902.69;;;13.62;57.16
8039;BME280;4062;49.844;8.120;2024-03-07T06:40:14;99903.53;;;13.63;57.19
8039;BME280;4062;49.844;8.120;2024-03-07T06:42:40;99903.53;;;13.63;57.23
8039;BME280;4062;49.844;8.120;2024-03-07T06:44:42;99901.81;;;13.62;57.17
8039;BME280;4062;49.844;8.120;2024-03-07T06:46:43;99896.47;;;13.63;57.23
8039;BME280;4062;49.844;8.120;2024-03-07T06:48:47;99894.72;;;13.62;57.33
8039;BME280;4062;49.844;8.120;2024-03-07T06:50:48;99903.53;;;13.63;57.32
8039;BME280;4062;49.844;8.120;2024-03-07T06:52:49;99902.69;;;13.62;57.32
8039;BME280;4062;49.844;8.120;2024-03-07T06:54:51;99904.44;;;13.63;57.24
8039;BME280;4062;49.844;8.120;2024-03-07T06:56:53;99899.13;;;13.63;57.32
8039;BME280;4062;49.844;8.120;2024-03-07T06:58:55;99900.88;;;13.63;57.24
8039;BME280;4062;49.844;8.120;2024-03-07T07:00:58;99903.59;;;13.61;57.34
8039;BME280;4062;49.844;8.120;2024-03-07T07:03:10;99904.44;;;13.63;57.25
8039;BME280;4062;49.844;8.120;2024-03-07T07:05:15;99904.44;;;13.63;57.23
8039;BME280;4062;49.844;8.120;2024-03-07T07:07:17;99906.22;;;13.63;57.30
8039;BME280;4062;49.844;8.120;2024-03-07T07:09:19;99906.22;;;13.63;57.38
8039;BME280;4062;49.844;8.120;2024-03-07T07:11:23;99895.59;;;13.63;57.32
8039;BME280;4062;49.844;8.120;2024-03-07T07:13:40;99904.44;;;13.63;57.25
8039;BME280;4062;49.844;8.120;2024-03-07T07:15:43;99895.59;;;13.63;57.26
8039;BME280;4062;49.844;8.120;2024-03-07T07:17:48;99894.66;;;13.64;57.37
8039;BME280;4062;49.844;8.120;2024-03-07T07:19:53;99900.88;;;13.63;57.38
8039;BME280;4062;49.844;8.120;2024-03-07T07:21:59;99899.13;;;13.63;57.22
8039;BME280;4062;49.844;8.120;2024-03-07T07:24:04;99901.78;;;13.63;57.33
8039;BME280;4062;49.844;8.120;2024-03-07T07:26:09;99901.78;;;13.63;57.23
8039;BME280;4062;49.844;8.120;2024-03-07T07:28:10;99894.72;;;13.62;57.19
8039;BME280;4062;49.844;8.120;2024-03-07T07:30:14;99900.88;;;13.63;57.23
8039;BME280;4062;49.844;8.120;2024-03-07T07:32:15;99900.88;;;13.63;57.28
8039;BME280;4062;49.844;8.120;2024-03-07T07:34:17;99900.03;;;13.62;57.14
8039;BME280;4062;49.844;8.120;2024-03-07T07:36:18;99892.06;;;13.62;57.35
8039;BME280;4062;49.844;8.120;2024-03-07T07:38:20;99900.88;;;13.63;57.25
8039;BME280;4062;49.844;8.120;2024-03-07T07:40:23;99892.06;;;13.62;57.31
8039;BME280;4062;49.844;8.120;2024-03-07T07:42:26;99893.84;;;13.62;57.44
8039;BME280;4062;49.844;8.120;2024-03-07T07:44:27;99895.63;;;13.61;57.40
8039;BME280;4062;49.844;8.120;2024-03-07T07:46:28;99897.41;;;13.60;57.26
8039;BME280;4062;49.844;8.120;2024-03-07T07:48:30;99891.19;;;13.62;57.32
8039;BME280;4062;49.844;8.120;2024-03-07T07:50:31;99890.31;;;13.61;57.26
8039;BME280;4062;49.844;8.120;2024-03-07T07:52:35;99885.88;;;13.62;57.16
8039;BME280;4062;49.844;8.120;2024-03-07T07:54:40;99885.03;;;13.61;57.32
8039;BME280;4062;49.844;8.120;2024-03-07T07:56:41;99887.66;;;13.61;57.25
8039;BME280;4062;49.844;8.120;2024-03-07T07:58:42;99877.06;;;13.61;57.30
8039;BME280;4062;49.844;8.120;2024-03-07T08:00:44;99877.97;;;13.60;57.31
8039;BME280;4062;49.844;8.120;2024-03-07T08:04:54;99881.47;;;13.60;57.44
8039;BME280;4062;49.844;8.120;2024-03-07T08:06:55;99880.63;;;13.60;57.39
8039;BME280;4062;49.844;8.120;2024-03-07T08:08:56;99879.72;;;13.59;57.35
8039;BME280;4062;49.844;8.120;2024-03-07T08:10:58;99877.06;;;13.59;57.27
8039;BME280;4062;49.844;8.120;2024-03-07T08:13:01;99884.13;;;13.60;57.46
8039;BME280;4062;49.844;8.120;2024-03-07T08:15:04;99886.75;;;13.62;57.44
8039;BME280;4062;49.844;8.120;2024-03-07T08:17:06;99882.38;;;13.61;57.29
8039;BME280;4062;49.844;8.120;2024-03-07T08:19:07;99878.81;;;13.60;57.45
8039;BME280;4062;49.844;8.120;2024-03-07T08:21:10;99884.13;;;13.60;57.30
8039;BME280;4062;49.844;8.120;2024-03-07T08:23:12;99878.81;;;13.60;57.33
8039;BME280;4062;49.844;8.120;2024-03-07T08:25:16;99879.72;;;13.61;57.39
8039;BME280;4062;49.844;8.120;2024-03-07T08:27:17;99877.06;;;13.61;57.32
8039;BME280;4062;49.844;8.120;2024-03-07T08:29:19;99877.91;;;13.62;57.26
8039;BME280;4062;49.844;8.120;2024-03-07T08:31:20;99876.16;;;13.60;57.30
8039;BME280;4062;49.844;8.120;2024-03-07T08:33:21;99880.56;;;13.62;57.33
8039;BME280;4062;49.844;8.120;2024-03-07T08:35:23;99876.16;;;13.60;57.31
8039;BME280;4062;49.844;8.120;2024-03-07T08:37:24;99881.44;;;13.62;57.33
8039;BME280;4062;49.844;8.120;2024-03-07T08:39:25;99875.25;;;13.62;57.33
8039;BME280;4062;49.844;8.120;2024-03-07T08:41:27;99871.75;;;13.61;57.34
8039;BME280;4062;49.844;8.120;2024-03-07T08:43:28;99875.25;;;13.62;57.30
8039;BME280;4062;49.844;8.120;2024-03-07T08:45:30;99869.94;;;13.62;57.38
8039;BME280;4062;49.844;8.120;2024-03-07T08:47:34;99877.06;;;13.61;57.19
8039;BME280;4062;49.844;8.120;2024-03-07T08:49:36;99871.75;;;13.61;57.39
8039;BME280;4062;49.844;8.120;2024-03-07T08:51:37;99864.63;;;13.62;57.33
8039;BME280;4062;49.844;8.120;2024-03-07T08:53:38;99869.94;;;13.62;57.37
8039;BME280;4062;49.844;8.120;2024-03-07T08:55:40;99864.63;;;13.62;57.35
8039;BME280;4062;49.844;8.120;2024-03-07T08:57:42;99870.84;;;13.62;57.44
8039;BME280;4062;49.844;8.120;2024-03-07T08:59:45;99867.28;;;13.62;57.29
8039;BME280;4062;49.844;8.120;2024-03-07T09:01:46;99860.22;;;13.62;57.24
8039;BME280;4062;49.844;8.120;2024-03-07T09:03:47;99869.03;;;13.63;57.35
8039;BME280;4062;49.844;8.120;2024-03-07T09:05:49;99861.94;;;13.63;57.25
8039;BME280;4062;49.844;8.120;2024-03-07T09:07:52;99863.72;;;13.63;57.32
8039;BME280;4062;49.844;8.120;2024-03-07T09:09:54;99862.81;;;13.64;57.32
8039;BME280;4062;49.844;8.120;2024-03-07T09:11:55;99868.06;;;13.65;57.34
8039;BME280;4062;49.844;8.120;2024-03-07T09:13:56;99861.00;;;13.64;57.37
8039;BME280;4062;49.844;8.120;2024-03-07T09:15:57;99861.00;;;13.66;57.24
8039;BME280;4062;49.844;8.120;2024-03-07T09:17:59;99859.25;;;13.65;57.28
8039;BME280;4062;49.844;8.120;2024-03-07T09:20:05;99860.09;;;13.65;57.33
8039;BME280;4062;49.844;8.120;2024-03-07T09:22:06;99858.34;;;13.66;57.33
8039;BME280;4062;49.844;8.120;2024-03-07T09:24:09;99850.38;;;13.66;57.27
8039;BME280;4062;49.844;8.120;2024-03-07T09:26:10;99856.53;;;13.66;57.29
8039;BME280;4062;49.844;8.120;2024-03-07T09:28:13;99849.47;;;13.67;57.31
8039;BME280;4062;49.844;8.120;2024-03-07T09:30:14;99852.97;;;13.67;57.25
8039;BME280;4062;49.844;8.120;2024-03-07T09:32:20;99848.53;;;13.68;57.35
8039;BME280;4062;49.844;8.120;2024-03-07T09:34:24;99850.31;;;13.67;57.31
8039;BME280;4062;49.844;8.120;2024-03-07T09:36:26;99845.00;;;13.67;57.29
8039;BME280;4062;49.844;8.120;2024-03-07T09:38:27;99850.31;;;13.67;57.15
8039;BME280;4062;49.844;8.120;2024-03-07T09:40:29;99850.31;;;13.67;57.29
8039;BME280;4062;49.844;8.120;2024-03-07T09:42:30;99850.31;;;13.67;57.24
8039;BME280;4062;49.844;8.120;2024-03-07T09:44:33;99853.84;;;13.68;57.25
8039;BME280;4062;49.844;8.120;2024-03-07T09:46:36;99846.81;;;13.67;57.34
8039;BME280;4062;49.844;8.120;2024-03-07T09:48:38;99851.19;;;13.68;57.28
8039;BME280;4062;49.844;8.120;2024-03-07T09:50:41;99846.75;;;13.68;57.26
8039;BME280;4062;49.844;8.120;2024-03-07T09:52:45;99852.91;;;13.69;57.28
8039;BME280;4062;49.844;8.120;2024-03-07T09:54:47;99848.53;;;13.68;57.21
8039;BME280;4062;49.844;8.120;2024-03-07T09:56:48;99854.72;;;13.68;57.21
8039;BME280;4062;49.844;8.120;2024-03-07T09:58:51;99840.53;;;13.69;57.18
8039;BME280;4062;49.844;8.120;2024-03-07T10:00:54;99838.78;;;13.68;57.40
8039;BME280;4062;49.844;8.120;2024-03-07T10:02:58;99843.22;;;13.68;57.19
8039;BME280;4062;49.844;8.120;2024-03-07T10:05:00;99843.19;;;13.69;57.31
8039;BME280;4062;49.844;8.120;2024-03-07T10:07:03;99835.25;;;13.68;57.19
8039;BME280;4062;49.844;8.120;2024-03-07T10:09:05;99828.16;;;13.68;57.26
8039;BME280;4062;49.844;8.120;2024-03-07T10:11:07;99829.91;;;13.69;57.30
8039;BME280;4062;49.844;8.120;2024-03-07T10:13:10;99836.97;;;13.69;57.32
8039;BME280;4062;49.844;8.120;2024-03-07T10:15:11;99842.28;;;13.69;57.12
8039;BME280;4062;49.844;8.120;2024-03-07T10:17:14;99837.88;;;13.69;57.39
8039;BME280;4062;49.844;8.120;2024-03-07T10:19:15;99836.13;;;13.68;57.37
8039;BME280;4062;49.844;8.120;2024-03-07T10:21:20;99836.97;;;13.69;57.33
8039;BME280;4062;49.844;8.120;2024-03-07T10:23:22;99836.13;;;13.68;57.32
8039;BME280;4062;49.844;8.120;2024-03-07T10:25:27;99829.00;;;13.69;57.34
8039;BME280;4062;49.844;8.120;2024-03-07T10:27:29;99829.00;;;13.69;57.31
8039;BME280;4062;49.844;8.120;2024-03-07T10:29:30;99833.47;;;13.68;57.29
8039;BME280;4062;49.844;8.120;2024-03-07T10:31:32;99836.97;;;13.69;57.38
8039;BME280;4062;49.844;8.120;2024-03-07T10:33:34;99830.81;;;13.68;57.39
8039;BME280;4062;49.844;8.120;2024-03-07T10:35:37;99831.66;;;13.69;57.25
8039;BME280;4062;49.844;8.120;2024-03-07T10:37:38;99822.84;;;13.68;57.29
8039;BME280;4062;49.844;8.120;2024-03-07T10:39:40;99820.19;;;13.68;57.26
8039;BME280;4062;49.844;8.120;2024-03-07T10:41:46;99822.00;;;13.68;57.32
8039;BME280;4062;49.844;8.120;2024-03-07T10:43:52;99822.84;;;13.68;57.34
8039;BME280;4062;49.844;8.120;2024-03-07T10:45:58;99817.53;;;13.68;57.31
8039;BME280;4062;49.844;8.120;2024-03-07T10:48:03;99818.38;;;13.69;57.31
8039;BME280;4062;49.844;8.120;2024-03-07T10:50:16;99818.38;;;13.69;57.34
8039;BME280;4062;49.844;8.120;2024-03-07T10:53:07;99811.31;;;13.69;57.30
8039;BME280;4062;49.844;8.120;2024-03-07T10:54:57;99811.31;;;13.69;57.21
8039;BME280;4062;49.844;8.120;2024-03-07T10:57:22;99802.47;;;13.69;57.28
8039;BME280;4062;49.844;8.120;2024-03-07T10:59:27;99798.03;;;13.69;57.39
8039;BME280;4062;49.844;8.120;2024-03-07T11:01:31;99803.34;;;13.69;57.34
8039;BME280;4062;49.844;8.120;2024-03-07T11:03:37;99801.59;;;13.68;57.28
8039;BME280;4062;49.844;8.120;2024-03-07T11:05:41;99799.81;;;13.69;57.40
8039;BME280;4062;49.844;8.120;2024-03-07T11:07:44;99795.38;;;13.69;57.26
8039;BME280;4062;49.844;8.120;2024-03-07T11:09:47;99790.97;;;13.68;57.19